Ragan Village, North Carolina
Current Conditions -  °F | °C
As of 10:54 PM on Tuesday 21 Oct 2014 (Local Time) from KAKH Reporting Station
Clear Clear  
Wind Chill: 56°   Ceiling: Unl
Heat Index: 56°   Visibility: 10mi
Dew Point: 39°   Wind: 8mph
Humidity: 53%   Direction: 350°N
Pressure: 29.98"   Gusts: NA
Location:  35.2631°N, 81.1487°W
Report Text: KAKH 220254Z AUTO 35007KT 10SM CLR 13/04 A2998 RMK AO2 SLP150 T01330039 51015
Loading
Personal Weather Stations






























Interactive Weather Map New forecast layout! Learn more

10-Day Weather Forecast

Advertisements
Track Severe Weather on mobile